Time;durP1;ratioP1;P1;durP2;ratioP2;P2;SDS_P1;SDS_P2;PMS_P1;PMS_P2;Temp;Humidity;BMP_temperature;BMP_pressure;BME280_temperature;BME280_humidity;BME280_pressure;Samples;Min_cycle;Max_cycle;Signal;HPM_P1;HPM_P2
2022/12/28 04:01:41;;;;;;;14.68;8.75;;;6.70;99.90;;;;;;6023513;23;20105;-87
2022/12/28 04:04:15;;;;;;;15.40;9.48;;;6.70;99.90;;;;;;6044786;23;20110;-86
2022/12/28 04:06:42;;;;;;;13.57;6.00;;;6.70;99.90;;;;;;6023690;23;20321;-87
2022/12/28 04:09:34;;;;;;;16.00;9.15;;;6.70;99.90;;;;;;6071362;23;20014;-84
2022/12/28 04:12:00;;;;;;;15.88;10.20;;;6.70;99.90;;;;;;6017351;23;20025;-85
2022/12/28 04:14:54;;;;;;;19.42;9.65;;;6.70;99.90;;;;;;6022229;23;20019;-86
2022/12/28 04:17:47;;;;;;;18.90;10.60;;;6.70;99.90;;;;;;6022949;23;20442;-87
2022/12/28 04:30:25;;;;;;;12.00;6.60;;;6.80;99.90;;;;;;6052184;23;20038;-86
2022/12/28 04:32:50;;;;;;;14.88;8.50;;;6.80;99.90;;;;;;6071356;23;19999;-85
2022/12/28 04:35:34;;;;;;;15.90;8.82;;;6.90;99.90;;;;;;6071193;23;20481;-84
2022/12/28 04:38:02;;;;;;;18.42;9.27;;;6.90;99.90;;;;;;6070532;23;20022;-86
2022/12/28 04:41:15;;;;;;;16.42;9.88;;;6.90;99.90;;;;;;6071108;23;20003;-88
2022/12/28 04:43:49;;;;;;;26.45;13.25;;;7.00;99.90;;;;;;6045027;23;20027;-87
2022/12/28 04:46:25;;;;;;;20.30;10.98;;;7.00;99.90;;;;;;6045937;23;20027;-88
2022/12/28 04:49:12;;;;;;;22.75;11.82;;;7.00;99.90;;;;;;6045960;23;20086;-88
2022/12/28 04:51:41;;;;;;;16.30;9.68;;;7.00;99.90;;;;;;6044060;23;20019;-87
2022/12/28 04:54:11;;;;;;;18.40;11.32;;;7.10;99.90;;;;;;6070766;23;20090;-84
2022/12/28 04:56:56;;;;;;;13.82;7.25;;;7.10;99.90;;;;;;6070969;23;20025;-89
2022/12/28 04:59:22;;;;;;;18.73;10.68;;;7.20;99.90;;;;;;6070101;23;20011;-86
2022/12/28 05:01:50;;;;;;;16.83;10.10;;;7.20;99.90;;;;;;6070682;23;20407;-87
2022/12/28 05:04:25;;;;;;;15.02;9.68;;;7.20;99.90;;;;;;6022122;23;20101;-89
2022/12/28 05:06:57;;;;;;;17.90;10.05;;;7.30;99.90;;;;;;6024315;23;20027;-83
2022/12/28 05:09:23;;;;;;;19.08;8.98;;;7.30;99.90;;;;;;6044610;23;20034;-88
2022/12/28 05:11:49;;;;;;;15.13;8.80;;;7.40;99.90;;;;;;6071007;23;20023;-86
2022/12/28 05:14:14;;;;;;;21.15;13.73;;;7.40;99.90;;;;;;6021340;23;20095;-84
2022/12/28 05:16:40;;;;;;;23.30;14.15;;;7.40;99.90;;;;;;6070823;23;20019;-84
2022/12/28 05:19:06;;;;;;;21.23;13.35;;;7.40;99.90;;;;;;6021457;23;20019;-85
2022/12/28 05:21:31;;;;;;;20.20;11.88;;;7.40;99.90;;;;;;6070246;23;20021;-84
2022/12/28 05:23:57;;;;;;;21.85;11.88;;;7.40;99.90;;;;;;6020828;23;20014;-84
2022/12/28 05:26:26;;;;;;;20.20;11.95;;;7.50;99.90;;;;;;6070082;23;20066;-85
2022/12/28 05:28:52;;;;;;;16.00;11.43;;;7.50;99.90;;;;;;6070801;23;20019;-83
2022/12/28 05:31:20;;;;;;;16.95;10.57;;;7.50;99.90;;;;;;6069806;23;20014;-87
2022/12/28 05:33:46;;;;;;;16.85;9.23;;;7.50;99.90;;;;;;6070561;23;20019;-86
2022/12/28 05:36:21;;;;;;;20.20;12.10;;;7.60;99.90;;;;;;6021824;23;20345;-85
2022/12/28 05:38:46;;;;;;;18.15;11.65;;;7.60;99.90;;;;;;6021018;23;20453;-86
2022/12/28 05:41:24;;;;;;;22.70;11.43;;;7.60;99.90;;;;;;6044834;23;20034;-84
2022/12/28 05:43:50;;;;;;;20.17;13.80;;;7.70;99.90;;;;;;6070085;23;20512;-85
2022/12/28 05:46:19;;;;;;;20.58;9.70;;;7.70;99.90;;;;;;6070667;23;20014;-84
2022/12/28 05:48:45;;;;;;;23.88;12.38;;;7.70;99.90;;;;;;6021271;23;20015;-87
2022/12/28 05:51:13;;;;;;;14.65;7.32;;;7.70;99.90;;;;;;6044856;23;20018;-84
2022/12/28 05:53:40;;;;;;;16.92;10.50;;;7.70;99.90;;;;;;6046231;23;19995;-87
2022/12/28 05:56:14;;;;;;;20.58;13.07;;;7.70;99.90;;;;;;6070707;23;20429;-90
2022/12/28 05:58:45;;;;;;;16.25;10.57;;;7.70;99.90;;;;;;6045437;23;20078;-87
2022/12/28 06:01:12;;;;;;;18.63;10.80;;;7.70;99.90;;;;;;6046704;23;20081;-87
2022/12/28 06:03:38;;;;;;;23.48;14.40;;;7.70;99.90;;;;;;6073519;23;20066;-87
2022/12/28 06:06:07;;;;;;;18.02;11.25;;;7.70;99.90;;;;;;6072512;23;20101;-85
2022/12/28 06:08:33;;;;;;;21.50;14.05;;;7.70;99.90;;;;;;6046597;23;20011;-86
2022/12/28 06:11:26;;;;;;;24.77;14.45;;;7.80;99.90;;;;;;6047371;23;20457;-87
2022/12/28 06:13:52;;;;;;;27.83;14.63;;;7.70;99.90;;;;;;6047037;23;20011;-86
2022/12/28 06:16:47;;;;;;;21.88;12.48;;;7.70;99.90;;;;;;6072086;23;20033;-86
2022/12/28 06:19:28;;;;;;;17.52;10.10;;;7.70;99.90;;;;;;6005606;23;20022;-88
2022/12/28 06:21:54;;;;;;;16.23;8.90;;;7.80;99.90;;;;;;6072665;23;20341;-86
2022/12/28 06:24:22;;;;;;;17.75;11.55;;;7.80;99.90;;;;;;6046659;23;20054;-90
2022/12/28 06:26:58;;;;;;;17.92;10.98;;;7.90;99.90;;;;;;6047320;23;20018;-86
2022/12/28 06:29:27;;;;;;;19.25;12.85;;;7.80;99.90;;;;;;6023235;23;20026;-87
2022/12/28 06:31:58;;;;;;;18.23;11.73;;;7.90;99.90;;;;;;6073207;23;20146;-88
2022/12/28 06:34:26;;;;;;;20.25;12.57;;;7.90;99.90;;;;;;6023864;23;20019;-87
2022/12/28 06:36:52;;;;;;;21.10;11.93;;;7.90;99.90;;;;;;6072507;23;20014;-86
2022/12/28 06:39:18;;;;;;;12.65;8.48;;;7.90;99.90;;;;;;6072881;23;20007;-89
2022/12/28 06:41:43;;;;;;;18.65;10.43;;;7.90;99.90;;;;;;6047650;23;20019;-88
2022/12/28 06:44:10;;;;;;;16.02;9.75;;;8.00;99.90;;;;;;6047419;23;20022;-85
2022/12/28 06:46:36;;;;;;;14.27;7.40;;;8.00;99.90;;;;;;6047193;23;20029;-87
2022/12/28 06:49:02;;;;;;;18.75;10.63;;;8.00;99.90;;;;;;6072836;23;20050;-87
2022/12/28 06:51:30;;;;;;;16.35;10.50;;;8.00;99.90;;;;;;6047469;23;20018;-86
2022/12/28 06:53:56;;;;;;;15.82;8.98;;;8.00;99.90;;;;;;6046681;23;20018;-87
2022/12/28 06:56:25;;;;;;;13.90;7.38;;;8.10;99.90;;;;;;6047668;23;20302;-87
2022/12/28 06:58:52;;;;;;;15.65;8.80;;;8.00;99.90;;;;;;6047654;23;20007;-87
2022/12/28 07:01:23;;;;;;;20.08;10.85;;;8.10;99.90;;;;;;6046757;23;20031;-87
2022/12/28 07:03:51;;;;;;;17.42;10.85;;;8.10;99.90;;;;;;6071965;23;20090;-86
2022/12/28 07:06:19;;;;;;;21.27;11.68;;;8.10;99.90;;;;;;6046514;23;20007;-86
2022/12/28 07:08:45;;;;;;;20.27;12.85;;;8.20;99.90;;;;;;6072194;23;20102;-85
2022/12/28 07:11:14;;;;;;;17.65;10.65;;;8.20;99.90;;;;;;6072574;23;20015;-87
2022/12/28 07:13:40;;;;;;;21.02;10.45;;;8.20;99.90;;;;;;6046928;23;20437;-90
2022/12/28 07:16:15;;;;;;;19.85;11.82;;;8.20;99.90;;;;;;6047206;23;20023;-86
2022/12/28 07:18:42;;;;;;;19.75;12.88;;;8.20;99.90;;;;;;6047871;23;20082;-86
2022/12/28 07:21:15;;;;;;;22.17;12.88;;;8.30;99.90;;;;;;6046585;23;20341;-87
2022/12/28 07:23:41;;;;;;;20.50;12.07;;;8.30;99.90;;;;;;6046295;23;20022;-86
2022/12/28 07:26:13;;;;;;;20.45;11.73;;;8.40;99.90;;;;;;6046428;23;20402;-85
2022/12/28 07:28:40;;;;;;;24.40;13.02;;;8.40;99.90;;;;;;6045864;23;20015;-88
2022/12/28 07:31:07;;;;;;;16.23;7.68;;;8.40;99.90;;;;;;6046094;23;20018;-86
2022/12/28 07:33:34;;;;;;;22.67;12.48;;;8.40;99.90;;;;;;6046463;23;20019;-85
2022/12/28 07:36:00;;;;;;;21.48;12.52;;;8.40;99.90;;;;;;6046473;23;20015;-86
2022/12/28 07:38:26;;;;;;;17.98;10.93;;;8.40;99.90;;;;;;6046528;23;20018;-83
2022/12/28 07:40:52;;;;;;;17.98;10.95;;;8.40;99.90;;;;;;6046889;23;20386;-86
2022/12/28 07:43:17;;;;;;;23.02;13.95;;;8.40;99.90;;;;;;6046910;23;20078;-85
2022/12/28 07:45:43;;;;;;;23.33;13.40;;;8.40;99.90;;;;;;6023454;23;20074;-85
2022/12/28 07:48:08;;;;;;;23.60;12.75;;;8.40;99.90;;;;;;6023767;23;20022;-86
2022/12/28 07:50:34;;;;;;;12.38;7.72;;;8.40;99.90;;;;;;6046364;23;20026;-85
2022/12/28 07:53:00;;;;;;;25.00;14.23;;;8.30;99.90;;;;;;6047476;23;20019;-85
2022/12/28 07:55:28;;;;;;;23.58;14.35;;;8.40;99.90;;;;;;6077806;23;20007;-86
2022/12/28 07:57:54;;;;;;;23.10;14.60;;;8.40;99.90;;;;;;6051550;23;20018;-84
2022/12/28 08:00:20;;;;;;;25.15;15.35;;;8.40;99.90;;;;;;6049302;23;20455;-85
2022/12/28 08:02:46;;;;;;;17.80;9.77;;;8.40;99.90;;;;;;6050806;23;20053;-85
2022/12/28 08:05:11;;;;;;;22.95;13.40;;;8.40;99.90;;;;;;6047662;23;20030;-85
2022/12/28 08:07:37;;;;;;;22.00;12.43;;;8.40;99.90;;;;;;6046649;23;20029;-86
2022/12/28 08:10:04;;;;;;;23.40;14.25;;;8.40;99.90;;;;;;6047600;23;20018;-85
2022/12/28 08:12:30;;;;;;;18.90;11.25;;;8.40;99.90;;;;;;6073529;23;20086;-85
2022/12/28 08:14:59;;;;;;;19.77;12.65;;;8.40;99.90;;;;;;6021767;23;20014;-86
2022/12/28 08:17:25;;;;;;;20.48;11.15;;;8.50;99.90;;;;;;6045926;23;20445;-84
2022/12/28 08:19:51;;;;;;;22.80;12.93;;;8.40;99.90;;;;;;6046941;23;20074;-85
2022/12/28 08:22:18;;;;;;;17.92;10.52;;;8.50;99.90;;;;;;6051307;23;20022;-86
2022/12/28 08:24:43;;;;;;;19.08;10.45;;;8.50;99.90;;;;;;6076547;23;20321;-85
2022/12/28 08:27:09;;;;;;;19.52;11.40;;;8.50;99.90;;;;;;6029065;23;20015;-85
2022/12/28 08:29:34;;;;;;;17.15;9.48;;;8.50;99.90;;;;;;6073727;23;20018;-85
2022/12/28 08:32:00;;;;;;;17.17;10.43;;;8.50;99.90;;;;;;6047246;23;20101;-85
2022/12/28 08:34:26;;;;;;;17.02;9.77;;;8.50;99.90;;;;;;6022913;23;20345;-88
2022/12/28 08:36:53;;;;;;;20.17;11.95;;;8.50;99.90;;;;;;6046515;23;20010;-88
2022/12/28 08:39:19;;;;;;;19.92;10.30;;;8.50;99.90;;;;;;6048341;23;20015;-87
2022/12/28 08:41:44;;;;;;;16.77;11.02;;;8.50;99.90;;;;;;6047294;23;20019;-87
2022/12/28 08:44:10;;;;;;;16.35;9.65;;;8.50;99.90;;;;;;6073162;23;20015;-87
2022/12/28 08:46:36;;;;;;;19.90;11.18;;;8.50;99.90;;;;;;6048415;23;20018;-87
2022/12/28 08:49:05;;;;;;;23.35;12.70;;;8.50;99.90;;;;;;6048835;23;20086;-87
2022/12/28 08:51:40;;;;;;;17.95;9.25;;;8.50;99.90;;;;;;6083890;23;20070;-89
2022/12/28 08:54:07;;;;;;;15.23;7.97;;;8.50;99.90;;;;;;6051936;23;20015;-88
2022/12/28 08:56:36;;;;;;;24.25;11.07;;;8.50;99.90;;;;;;6046831;23;20337;-90
2022/12/28 08:59:02;;;;;;;23.58;11.93;;;8.50;99.90;;;;;;6024430;23;20015;-87
2022/12/28 09:01:30;;;;;;;19.98;9.32;;;8.50;99.90;;;;;;6047374;23;20019;-87
2022/12/28 09:03:58;;;;;;;22.38;10.85;;;8.60;99.90;;;;;;6046531;23;20019;-85
2022/12/28 09:06:33;;;;;;;20.40;10.02;;;8.50;99.90;;;;;;6071295;23;20017;-85
2022/12/28 09:08:59;;;;;;;18.63;11.07;;;8.60;99.90;;;;;;6028120;23;20015;-88
2022/12/28 09:11:25;;;;;;;18.75;10.93;;;8.60;99.90;;;;;;6050197;23;20027;-88
2022/12/28 09:13:57;;;;;;;16.02;9.68;;;8.60;99.90;;;;;;6077583;23;20015;-86
2022/12/28 09:16:26;;;;;;;18.52;10.05;;;8.60;99.90;;;;;;6052655;23;20050;-86
2022/12/28 09:18:54;;;;;;;13.77;8.13;;;8.60;99.90;;;;;;6072536;23;20011;-85
2022/12/28 09:21:21;;;;;;;18.55;9.38;;;8.60;99.90;;;;;;6023424;23;20018;-86
2022/12/28 09:23:47;;;;;;;16.05;8.68;;;8.60;99.90;;;;;;6073771;23;20011;-84
2022/12/28 09:26:18;;;;;;;16.55;10.15;;;8.60;99.90;;;;;;6024361;23;20090;-84
2022/12/28 09:28:49;;;;;;;15.52;9.93;;;8.70;99.90;;;;;;6046842;23;20019;-87
2022/12/28 09:31:15;;;;;;;17.25;9.77;;;8.70;99.90;;;;;;6046043;23;20404;-85
2022/12/28 09:34:00;;;;;;;13.20;7.32;;;8.70;99.90;;;;;;6023900;23;20438;-86
2022/12/28 09:36:29;;;;;;;15.38;8.48;;;8.70;99.90;;;;;;6026191;23;20015;-86
2022/12/28 09:38:56;;;;;;;14.70;8.50;;;8.70;99.90;;;;;;6074516;23;20011;-87
2022/12/28 09:41:51;;;;;;;14.63;7.75;;;8.80;99.90;;;;;;6024795;23;20426;-88
2022/12/28 09:45:01;;;;;;;11.70;6.10;;;8.80;99.90;;;;;;6007434;23;20077;-86
2022/12/28 09:47:50;;;;;;;16.40;9.80;;;8.80;99.90;;;;;;6067998;23;20022;-84
2022/12/28 09:50:16;;;;;;;19.90;9.18;;;8.80;99.90;;;;;;6073872;23;20041;-82
2022/12/28 09:53:19;;;;;;;14.05;7.25;;;8.80;99.90;;;;;;6072084;23;20435;-79
2022/12/28 09:56:01;;;;;;;15.05;8.35;;;8.80;99.90;;;;;;6047137;23;20093;-84
2022/12/28 09:58:29;;;;;;;16.05;6.10;;;8.80;99.90;;;;;;6048753;23;20011;-88
2022/12/28 10:00:57;;;;;;;14.57;8.38;;;8.90;99.90;;;;;;6024008;23;20022;-87
2022/12/28 10:03:39;;;;;;;13.00;8.10;;;8.90;99.90;;;;;;6084002;23;19999;-86
2022/12/28 10:06:26;;;;;;;12.77;7.78;;;8.90;99.90;;;;;;6065943;23;20022;-87
2022/12/28 10:09:03;;;;;;;14.98;8.18;;;8.90;99.90;;;;;;6067216;23;20538;-86
2022/12/28 10:11:41;;;;;;;12.93;6.15;;;8.90;99.90;;;;;;6045842;23;20030;-86
2022/12/28 10:14:26;;;;;;;15.88;8.40;;;8.90;99.90;;;;;;6054499;23;20019;-85
2022/12/28 10:16:52;;;;;;;12.80;7.47;;;8.90;99.90;;;;;;6077205;23;20022;-85
2022/12/28 10:19:25;;;;;;;9.65;5.53;;;8.90;99.90;;;;;;6076375;23;20019;-87
2022/12/28 10:22:13;;;;;;;13.13;7.90;;;8.90;99.90;;;;;;6055328;23;20051;-86
2022/12/28 10:24:49;;;;;;;9.35;5.47;;;8.90;99.90;;;;;;5967599;24;20092;-82
2022/12/28 10:27:22;;;;;;;12.50;7.38;;;8.90;99.90;;;;;;5940857;24;20031;-86
2022/12/28 10:29:50;;;;;;;12.93;6.82;;;8.90;99.90;;;;;;5935153;24;20017;-85
2022/12/28 10:32:17;;;;;;;13.25;7.22;;;8.90;99.90;;;;;;5936369;24;20021;-86
2022/12/28 10:35:01;;;;;;;11.57;6.43;;;8.90;99.90;;;;;;5937584;24;20440;-85
2022/12/28 10:37:30;;;;;;;11.10;6.85;;;8.90;99.90;;;;;;5961715;24;20013;-86
2022/12/28 10:40:02;;;;;;;13.07;6.35;;;8.90;99.90;;;;;;5911645;24;20404;-86
2022/12/28 10:42:42;;;;;;;11.93;5.75;;;8.90;99.90;;;;;;5957869;24;20114;-86
2022/12/28 10:45:44;;;;;;;10.23;4.97;;;8.90;99.90;;;;;;5958238;24;20446;-85
2022/12/28 10:48:23;;;;;;;9.75;5.28;;;8.90;99.90;;;;;;5907017;23;20019;-86
2022/12/28 10:50:52;;;;;;;5.93;3.00;;;8.90;99.90;;;;;;5990091;23;20049;-87
2022/12/28 10:53:29;;;;;;;9.77;5.85;;;8.90;99.90;;;;;;5973651;23;20016;-85
2022/12/28 10:56:30;;;;;;;10.20;5.85;;;8.90;99.90;;;;;;5969067;23;20024;-86
2022/12/28 10:59:19;;;;;;;12.23;7.75;;;8.90;99.90;;;;;;5997372;23;20016;-86
2022/12/28 11:01:56;;;;;;;11.73;7.13;;;8.90;99.90;;;;;;5972499;23;20474;-86
2022/12/28 11:04:23;;;;;;;10.88;6.72;;;8.90;99.90;;;;;;6014622;23;20027;-84
2022/12/28 11:06:55;;;;;;;9.18;5.18;;;8.90;99.90;;;;;;5989655;23;20048;-86
2022/12/28 11:09:25;;;;;;;13.15;6.47;;;8.90;99.90;;;;;;6015051;23;20020;-87
2022/12/28 11:11:53;;;;;;;13.90;7.93;;;8.90;99.90;;;;;;6034521;23;20057;-88
2022/12/28 11:14:41;;;;;;;12.77;7.53;;;8.90;99.90;;;;;;6057253;23;20026;-89
2022/12/28 11:17:20;;;;;;;13.65;7.82;;;8.90;99.90;;;;;;6073369;23;20015;-86
2022/12/28 11:19:53;;;;;;;13.75;7.57;;;8.90;99.90;;;;;;6029153;23;20022;-86
2022/12/28 11:22:23;;;;;;;16.95;8.02;;;8.90;99.90;;;;;;6052627;23;20022;-87
2022/12/28 11:24:49;;;;;;;9.38;6.35;;;8.90;99.90;;;;;;6047827;23;20003;-87
2022/12/28 11:27:18;;;;;;;13.40;7.05;;;8.90;99.90;;;;;;6078885;23;20046;-86
2022/12/28 11:29:48;;;;;;;13.75;8.32;;;8.90;99.90;;;;;;6051657;23;20063;-85
2022/12/28 11:32:23;;;;;;;11.40;7.22;;;8.90;99.90;;;;;;6047419;23;20019;-85
2022/12/28 11:34:50;;;;;;;11.80;7.35;;;8.90;99.90;;;;;;6046230;23;20011;-86
2022/12/28 11:37:15;;;;;;;14.30;7.93;;;8.90;99.90;;;;;;6022638;23;20019;-84
2022/12/28 11:39:47;;;;;;;14.23;8.18;;;8.90;99.90;;;;;;6046189;23;20011;-85
2022/12/28 11:42:35;;;;;;;11.65;7.57;;;8.90;99.90;;;;;;6072696;23;20333;-85
2022/12/28 11:45:03;;;;;;;12.15;8.15;;;8.90;99.90;;;;;;6070807;23;20014;-87
2022/12/28 11:47:35;;;;;;;12.45;7.22;;;8.90;99.90;;;;;;6070990;23;20033;-86
2022/12/28 11:50:37;;;;;;;9.65;6.53;;;8.90;99.90;;;;;;6045904;23;20050;-86
2022/12/28 11:53:18;;;;;;;14.48;7.88;;;8.90;99.90;;;;;;6071823;23;20046;-84
2022/12/28 11:56:08;;;;;;;10.65;5.38;;;8.90;99.90;;;;;;6072849;23;20014;-81
2022/12/28 11:58:41;;;;;;;11.48;7.40;;;8.90;99.90;;;;;;6046810;23;20022;-82
2022/12/28 12:01:39;;;;;;;10.82;6.75;;;8.90;99.90;;;;;;6045936;23;20452;-82
2022/12/28 12:04:26;;;;;;;9.80;5.15;;;8.90;99.90;;;;;;6020980;23;20054;-84
2022/12/28 12:06:52;;;;;;;12.18;6.93;;;8.90;99.90;;;;;;6022031;23;20426;-84
2022/12/28 12:09:20;;;;;;;13.60;7.20;;;8.90;99.90;;;;;;6069759;23;20053;-84
2022/12/28 12:11:48;;;;;;;9.02;5.72;;;8.90;99.90;;;;;;6044392;23;20102;-83
2022/12/28 12:14:17;;;;;;;11.73;6.60;;;8.90;99.90;;;;;;6044777;23;20015;-82
2022/12/28 12:17:06;;;;;;;11.20;5.80;;;8.90;99.90;;;;;;6070780;23;20074;-84
2022/12/28 12:19:35;;;;;;;11.80;5.97;;;8.90;99.90;;;;;;6046198;23;20130;-85
2022/12/28 12:22:15;;;;;;;11.57;6.57;;;8.90;99.90;;;;;;6073337;23;20143;-84
2022/12/28 12:24:57;;;;;;;12.15;6.18;;;8.80;99.90;;;;;;6072080;23;20042;-83
2022/12/28 12:27:37;;;;;;;10.48;5.72;;;8.80;99.90;;;;;;6075132;23;20009;-84
2022/12/28 12:30:20;;;;;;;9.80;6.38;;;8.80;99.90;;;;;;6046162;23;20067;-84
2022/12/28 12:32:46;;;;;;;11.13;6.25;;;8.80;99.90;;;;;;6072821;23;20007;-83
2022/12/28 12:35:19;;;;;;;10.25;5.18;;;8.90;99.90;;;;;;6048943;23;20023;-83
2022/12/28 12:37:50;;;;;;;9.27;5.43;;;8.90;99.90;;;;;;6047295;23;20018;-84
2022/12/28 12:40:34;;;;;;;10.98;5.45;;;8.90;99.90;;;;;;6071468;23;20014;-84
2022/12/28 12:43:22;;;;;;;8.63;4.88;;;8.90;99.90;;;;;;6046087;23;20022;-84
2022/12/28 12:46:15;;;;;;;8.23;4.85;;;8.90;99.90;;;;;;6046495;23;20448;-83
2022/12/28 12:49:02;;;;;;;8.45;4.57;;;8.90;99.90;;;;;;6046551;23;20026;-83
2022/12/28 12:51:53;;;;;;;8.10;4.57;;;8.90;99.90;;;;;;6021605;23;20452;-84
2022/12/28 12:54:37;;;;;;;8.27;4.22;;;8.90;99.90;;;;;;6045340;23;20046;-84
2022/12/28 12:57:12;;;;;;;8.48;4.75;;;8.90;99.90;;;;;;6045462;23;20015;-83
2022/12/28 13:00:00;;;;;;;9.55;4.00;;;8.90;99.90;;;;;;6045301;23;20026;-81
2022/12/28 13:02:44;;;;;;;5.70;3.65;;;8.90;99.90;;;;;;6071088;23;20442;-82
2022/12/28 13:05:22;;;;;;;7.97;4.60;;;8.90;99.90;;;;;;6045429;23;20021;-83
2022/12/28 13:07:49;;;;;;;8.68;4.97;;;8.90;99.90;;;;;;6044773;23;20022;-83
2022/12/28 13:10:43;;;;;;;8.43;4.35;;;8.90;99.90;;;;;;6045298;23;20015;-82
2022/12/28 13:13:26;;;;;;;6.50;4.30;;;8.90;99.90;;;;;;6043051;23;20015;-83
2022/12/28 13:15:53;;;;;;;6.53;3.33;;;8.90;99.90;;;;;;6046406;23;20015;-82
2022/12/28 13:18:20;;;;;;;8.50;3.90;;;9.00;99.90;;;;;;6071735;23;20078;-83
2022/12/28 13:20:54;;;;;;;6.25;4.00;;;9.00;99.90;;;;;;6046537;23;20348;-83
2022/12/28 13:23:22;;;;;;;7.47;4.63;;;9.00;99.90;;;;;;6046948;23;20023;-83
2022/12/28 13:25:50;;;;;;;6.15;3.80;;;9.00;99.90;;;;;;6046512;23;20504;-83
2022/12/28 13:28:28;;;;;;;5.50;3.72;;;8.90;99.90;;;;;;6072019;23;20015;-83
2022/12/28 13:31:02;;;;;;;6.15;3.00;;;9.00;99.90;;;;;;6047206;23;20393;-86
2022/12/28 13:33:29;;;;;;;5.00;2.90;;;8.90;99.90;;;;;;6023640;23;20081;-84
2022/12/28 13:36:19;;;;;;;5.60;2.65;;;8.90;99.90;;;;;;6047337;23;20346;-83
2022/12/28 13:38:45;;;;;;;7.55;3.13;;;8.90;99.90;;;;;;6023211;23;20011;-83
2022/12/28 13:41:31;;;;;;;3.67;2.10;;;8.90;99.90;;;;;;6046249;23;20082;-83
2022/12/28 13:44:14;;;;;;;3.85;2.25;;;8.80;99.90;;;;;;6046305;23;20094;-82
2022/12/28 13:46:44;;;;;;;10.25;3.15;;;8.80;99.90;;;;;;6045973;23;20336;-82
2022/12/28 13:49:11;;;;;;;7.90;3.00;;;8.80;99.90;;;;;;6046574;23;20358;-84
2022/12/28 13:51:38;;;;;;;6.38;3.10;;;8.80;99.90;;;;;;6072310;23;20476;-81
2022/12/28 13:54:06;;;;;;;4.80;2.63;;;8.80;99.90;;;;;;6048008;23;20053;-83
2022/12/28 13:56:34;;;;;;;6.70;2.97;;;8.70;99.90;;;;;;6046723;23;20349;-84
2022/12/28 13:59:05;;;;;;;8.50;3.80;;;8.80;99.90;;;;;;6046312;23;20046;-84
2022/12/28 14:01:36;;;;;;;5.07;3.10;;;8.80;99.90;;;;;;6046298;23;20330;-83
2022/12/28 14:04:06;;;;;;;9.65;4.43;;;8.80;99.90;;;;;;6045804;23;20029;-83
2022/12/28 14:06:33;;;;;;;12.52;4.45;;;8.70;99.90;;;;;;6045599;23;20057;-81
2022/12/28 14:08:59;;;;;;;8.35;4.35;;;8.80;99.90;;;;;;6071730;23;20021;-82
2022/12/28 14:11:25;;;;;;;6.88;4.20;;;8.80;99.90;;;;;;6070638;23;20038;-81
2022/12/28 14:13:52;;;;;;;11.10;4.70;;;8.70;99.90;;;;;;6070607;23;20342;-82
2022/12/28 14:16:18;;;;;;;12.75;4.15;;;8.70;99.90;;;;;;6070399;23;20012;-82
2022/12/28 14:18:44;;;;;;;9.32;4.55;;;8.80;99.90;;;;;;6046298;23;20030;-83
2022/12/28 14:21:10;;;;;;;6.78;4.22;;;8.70;99.90;;;;;;6045651;23;20046;-83
2022/12/28 14:23:38;;;;;;;9.88;4.80;;;8.80;99.90;;;;;;6071549;23;20026;-82
2022/12/28 14:26:07;;;;;;;10.63;4.38;;;8.80;99.90;;;;;;6071540;23;20014;-82
2022/12/28 14:28:41;;;;;;;8.57;4.82;;;8.80;99.90;;;;;;6071282;23;20046;-83
2022/12/28 14:31:09;;;;;;;8.25;4.55;;;8.80;99.90;;;;;;6046995;23;20018;-83
2022/12/28 14:34:03;;;;;;;10.30;5.38;;;8.80;99.90;;;;;;6044949;23;20022;-82
2022/12/28 14:36:32;;;;;;;11.00;5.80;;;8.80;99.90;;;;;;6046103;23;20022;-82
2022/12/28 14:39:00;;;;;;;16.50;6.35;;;8.80;99.90;;;;;;6021806;23;20015;-83
2022/12/28 14:41:31;;;;;;;13.60;6.53;;;8.70;99.90;;;;;;6045368;23;20031;-81
2022/12/28 14:43:59;;;;;;;15.68;7.65;;;8.80;99.90;;;;;;6070556;23;20054;-82
2022/12/28 14:46:37;;;;;;;13.25;6.72;;;8.80;99.90;;;;;;6045048;23;20023;-83
2022/12/28 14:49:28;;;;;;;14.60;5.70;;;8.80;99.90;;;;;;6045696;23;20010;-82
2022/12/28 14:52:06;;;;;;;13.35;7.18;;;8.80;99.90;;;;;;6071122;23;20392;-82
2022/12/28 14:54:41;;;;;;;15.38;8.15;;;8.80;99.90;;;;;;6045049;23;20021;-81
2022/12/28 14:57:18;;;;;;;;;;;8.90;99.90;;;;;;6046023;23;20050;-82
2022/12/28 14:59:48;;;;;;;12.30;6.97;;;8.90;99.90;;;;;;6046785;23;19975;-81
2022/12/28 15:02:32;;;;;;;15.70;7.63;;;8.80;99.90;;;;;;6047790;23;20011;-80
2022/12/28 15:04:58;;;;;;;12.80;6.93;;;8.80;99.90;;;;;;6058230;23;20053;-81
2022/12/28 15:07:24;;;;;;;11.55;7.28;;;8.90;99.90;;;;;;6054135;23;20451;-80
2022/12/28 15:09:49;;;;;;;16.77;7.38;;;8.90;99.90;;;;;;6073349;23;20015;-81
2022/12/28 15:12:19;;;;;;;17.85;7.97;;;8.90;99.90;;;;;;6071293;23;20018;-76
2022/12/28 15:14:45;;;;;;;14.43;7.28;;;8.90;99.90;;;;;;6044300;23;20015;-76
2022/12/28 15:17:11;;;;;;;12.85;6.18;;;8.90;99.90;;;;;;6069238;23;20010;-76
2022/12/28 15:19:37;;;;;;;13.43;6.53;;;8.90;99.90;;;;;;6069534;23;20039;-76
2022/12/28 15:22:04;;;;;;;12.38;5.45;;;8.90;99.90;;;;;;6043598;23;20082;-75
2022/12/28 15:24:30;;;;;;;12.25;5.38;;;8.90;99.90;;;;;;6044076;23;20018;-77
2022/12/28 15:26:56;;;;;;;14.57;6.57;;;8.90;99.90;;;;;;6043652;23;20357;-75
2022/12/28 15:29:22;;;;;;;16.83;6.50;;;8.90;99.90;;;;;;6068682;23;20015;-75
2022/12/28 15:31:48;;;;;;;16.02;6.72;;;8.90;99.90;;;;;;6068952;23;20023;-76
2022/12/28 15:34:13;;;;;;;17.50;7.05;;;8.90;99.90;;;;;;6068547;23;20007;-76
2022/12/28 15:36:41;;;;;;;13.35;6.55;;;8.90;99.90;;;;;;6043456;23;20015;-76
2022/12/28 15:39:06;;;;;;;15.65;6.35;;;8.90;99.90;;;;;;6043597;23;20015;-76
2022/12/28 15:41:47;;;;;;;13.00;6.20;;;8.90;99.90;;;;;;6043307;23;20094;-76
2022/12/28 15:44:14;;;;;;;10.98;5.30;;;8.90;99.90;;;;;;6044464;23;20029;-75
2022/12/28 15:46:40;;;;;;;15.15;5.50;;;8.90;99.90;;;;;;6069126;23;20014;-75
2022/12/28 15:49:06;;;;;;;11.52;5.30;;;8.90;99.90;;;;;;6043338;23;20063;-76
2022/12/28 15:51:32;;;;;;;11.65;5.43;;;9.00;99.90;;;;;;6069205;23;20022;-76
2022/12/28 15:53:58;;;;;;;10.88;5.63;;;9.00;99.90;;;;;;6043266;23;20011;-77
2022/12/28 15:56:26;;;;;;;12.02;5.38;;;8.90;99.90;;;;;;6043283;23;20077;-76
2022/12/28 15:58:53;;;;;;;8.05;4.35;;;9.00;99.90;;;;;;6068443;23;20441;-76
2022/12/28 16:01:20;;;;;;;8.25;3.97;;;9.00;99.90;;;;;;6068681;23;20022;-76
2022/12/28 16:03:49;;;;;;;9.93;5.32;;;9.00;99.90;;;;;;6043268;23;20022;-76
2022/12/28 16:06:15;;;;;;;13.98;4.80;;;9.00;99.90;;;;;;6043839;23;20025;-75
2022/12/28 16:08:40;;;;;;;14.88;5.15;;;9.00;99.90;;;;;;6043163;23;20400;-75
2022/12/28 16:11:13;;;;;;;9.82;4.65;;;9.00;99.90;;;;;;6043078;23;20019;-75
2022/12/28 16:13:39;;;;;;;10.45;4.95;;;9.00;99.90;;;;;;6019606;23;20066;-77
2022/12/28 16:16:06;;;;;;;9.02;4.93;;;8.90;99.90;;;;;;6043191;23;20015;-78
2022/12/28 16:18:32;;;;;;;15.38;5.07;;;9.00;99.90;;;;;;6068888;23;20011;-76
2022/12/28 16:21:03;;;;;;;15.90;5.90;;;8.90;99.90;;;;;;6068387;23;20333;-75
2022/12/28 16:23:30;;;;;;;17.50;5.10;;;8.90;99.90;;;;;;6068815;23;20026;-75
2022/12/28 16:25:56;;;;;;;11.07;4.35;;;8.90;99.90;;;;;;6044044;23;20015;-76
2022/12/28 16:28:23;;;;;;;12.02;4.45;;;8.90;99.90;;;;;;6042995;23;20022;-76
2022/12/28 16:30:48;;;;;;;9.88;4.60;;;8.90;99.90;;;;;;6042784;23;20025;-76
2022/12/28 16:33:14;;;;;;;14.52;5.15;;;8.80;99.90;;;;;;6043108;23;20046;-76
2022/12/28 16:35:40;;;;;;;7.70;4.18;;;8.80;99.90;;;;;;6043352;23;20019;-77
2022/12/28 16:38:05;;;;;;;13.60;4.50;;;8.90;99.90;;;;;;6043182;23;20017;-77
2022/12/28 16:40:32;;;;;;;11.57;4.85;;;8.80;99.90;;;;;;6042984;23;20055;-76
2022/12/28 16:42:58;;;;;;;12.95;5.13;;;8.80;99.90;;;;;;6068707;23;20022;-77
2022/12/28 16:45:24;;;;;;;9.50;4.60;;;8.90;99.90;;;;;;6042917;23;20023;-76
2022/12/28 16:47:49;;;;;;;11.65;4.97;;;8.80;99.90;;;;;;6068675;23;20018;-77
2022/12/28 16:50:18;;;;;;;10.20;4.55;;;8.90;99.90;;;;;;6043152;23;20073;-77
2022/12/28 16:52:43;;;;;;;9.77;4.60;;;8.80;99.90;;;;;;6068879;23;20011;-78
2022/12/28 16:55:09;;;;;;;10.50;4.60;;;8.80;99.90;;;;;;6043566;23;20429;-77
2022/12/28 16:57:35;;;;;;;14.13;4.75;;;8.80;99.90;;;;;;6043175;23;20014;-76
2022/12/28 17:00:00;;;;;;;13.93;5.63;;;8.80;99.90;;;;;;6043528;23;20013;-77
2022/12/28 17:02:26;;;;;;;12.75;4.70;;;8.80;99.90;;;;;;6068384;23;20390;-77
2022/12/28 17:04:51;;;;;;;15.38;4.47;;;8.80;99.90;;;;;;6068738;23;20018;-78
2022/12/28 17:07:17;;;;;;;11.70;4.13;;;8.80;99.90;;;;;;6068835;23;20131;-76
2022/12/28 17:09:43;;;;;;;10.52;4.57;;;8.80;99.90;;;;;;6043093;23;20073;-78
2022/12/28 17:12:09;;;;;;;9.90;4.53;;;8.80;99.90;;;;;;6043483;23;20442;-77
2022/12/28 17:14:34;;;;;;;12.23;4.57;;;8.80;99.90;;;;;;6043126;23;20025;-77
2022/12/28 17:17:00;;;;;;;10.38;3.88;;;8.80;99.90;;;;;;6043086;23;20018;-78
2022/12/28 17:19:25;;;;;;;11.90;4.57;;;8.80;99.90;;;;;;6043323;23;20014;-78